sensor_id;sensor_type;location;lat;lon;timestamp;P1;durP1;ratioP1;P2;durP2;ratioP2
19221;SDS011;9745;50.828;4.378;2022-11-20T00:00:57;58.27;;;28.30;;
19221;SDS011;9745;50.828;4.378;2022-11-20T00:03:29;60.50;;;27.87;;
19221;SDS011;9745;50.828;4.378;2022-11-20T00:05:59;52.60;;;25.30;;
19221;SDS011;9745;50.828;4.378;2022-11-20T00:08:25;58.57;;;27.37;;
19221;SDS011;9745;50.828;4.378;2022-11-20T00:10:51;56.20;;;25.43;;
19221;SDS011;9745;50.828;4.378;2022-11-20T00:13:16;60.80;;;28.27;;
19221;SDS011;9745;50.828;4.378;2022-11-20T00:15:42;59.97;;;27.37;;
19221;SDS011;9745;50.828;4.378;2022-11-20T00:18:08;55.90;;;26.33;;
19221;SDS011;9745;50.828;4.378;2022-11-20T00:20:34;60.90;;;25.50;;
19221;SDS011;9745;50.828;4.378;2022-11-20T00:23:00;57.63;;;25.93;;
19221;SDS011;9745;50.828;4.378;2022-11-20T00:25:26;51.40;;;26.13;;
19221;SDS011;9745;50.828;4.378;2022-11-20T00:27:52;57.97;;;27.47;;
19221;SDS011;9745;50.828;4.378;2022-11-20T00:30:18;50.30;;;25.80;;
19221;SDS011;9745;50.828;4.378;2022-11-20T00:32:44;49.57;;;25.83;;
19221;SDS011;9745;50.828;4.378;2022-11-20T00:35:10;61.43;;;27.67;;
19221;SDS011;9745;50.828;4.378;2022-11-20T00:37:36;57.77;;;27.00;;
19221;SDS011;9745;50.828;4.378;2022-11-20T00:40:02;61.17;;;27.87;;
19221;SDS011;9745;50.828;4.378;2022-11-20T00:42:29;62.17;;;27.67;;
19221;SDS011;9745;50.828;4.378;2022-11-20T00:44:57;59.93;;;28.30;;
19221;SDS011;9745;50.828;4.378;2022-11-20T00:47:23;47.43;;;25.17;;
19221;SDS011;9745;50.828;4.378;2022-11-20T00:49:49;57.13;;;26.13;;
19221;SDS011;9745;50.828;4.378;2022-11-20T00:52:15;52.13;;;26.07;;
19221;SDS011;9745;50.828;4.378;2022-11-20T00:54:41;54.17;;;26.70;;
19221;SDS011;9745;50.828;4.378;2022-11-20T00:57:07;59.43;;;29.07;;
19221;SDS011;9745;50.828;4.378;2022-11-20T00:59:33;49.03;;;26.17;;
19221;SDS011;9745;50.828;4.378;2022-11-20T01:01:59;50.63;;;26.43;;
19221;SDS011;9745;50.828;4.378;2022-11-20T01:04:25;51.27;;;25.17;;
19221;SDS011;9745;50.828;4.378;2022-11-20T01:06:51;50.47;;;25.57;;
19221;SDS011;9745;50.828;4.378;2022-11-20T01:09:17;50.63;;;26.03;;
19221;SDS011;9745;50.828;4.378;2022-11-20T01:11:43;53.87;;;25.57;;
19221;SDS011;9745;50.828;4.378;2022-11-20T01:14:11;47.77;;;25.67;;
19221;SDS011;9745;50.828;4.378;2022-11-20T01:16:38;52.17;;;26.77;;
19221;SDS011;9745;50.828;4.378;2022-11-20T01:19:06;52.97;;;26.73;;
19221;SDS011;9745;50.828;4.378;2022-11-20T01:21:36;51.50;;;26.03;;
19221;SDS011;9745;50.828;4.378;2022-11-20T01:24:03;51.03;;;25.93;;
19221;SDS011;9745;50.828;4.378;2022-11-20T01:26:30;47.80;;;25.67;;
19221;SDS011;9745;50.828;4.378;2022-11-20T01:28:57;51.20;;;26.73;;
19221;SDS011;9745;50.828;4.378;2022-11-20T01:33:50;48.70;;;26.00;;
19221;SDS011;9745;50.828;4.378;2022-11-20T01:36:16;48.47;;;24.60;;
19221;SDS011;9745;50.828;4.378;2022-11-20T01:38:42;48.33;;;25.90;;
19221;SDS011;9745;50.828;4.378;2022-11-20T01:41:09;46.90;;;25.93;;
19221;SDS011;9745;50.828;4.378;2022-11-20T01:43:35;52.83;;;24.93;;
19221;SDS011;9745;50.828;4.378;2022-11-20T01:48:35;46.07;;;25.23;;
19221;SDS011;9745;50.828;4.378;2022-11-20T01:51:02;50.90;;;25.73;;
19221;SDS011;9745;50.828;4.378;2022-11-20T01:53:30;47.13;;;26.10;;
19221;SDS011;9745;50.828;4.378;2022-11-20T01:55:58;45.37;;;24.40;;
19221;SDS011;9745;50.828;4.378;2022-11-20T01:58:27;48.87;;;24.90;;
19221;SDS011;9745;50.828;4.378;2022-11-20T02:00:54;45.40;;;24.57;;
19221;SDS011;9745;50.828;4.378;2022-11-20T02:03:20;48.13;;;24.87;;
19221;SDS011;9745;50.828;4.378;2022-11-20T02:05:48;47.20;;;24.27;;
19221;SDS011;9745;50.828;4.378;2022-11-20T02:08:15;55.13;;;26.93;;
19221;SDS011;9745;50.828;4.378;2022-11-20T02:10:43;49.30;;;26.53;;
19221;SDS011;9745;50.828;4.378;2022-11-20T02:13:09;52.93;;;25.93;;
19221;SDS011;9745;50.828;4.378;2022-11-20T02:15:53;53.97;;;26.57;;
19221;SDS011;9745;50.828;4.378;2022-11-20T02:18:20;47.63;;;26.33;;
19221;SDS011;9745;50.828;4.378;2022-11-20T02:20:47;46.07;;;26.07;;
19221;SDS011;9745;50.828;4.378;2022-11-20T02:23:17;50.23;;;25.37;;
19221;SDS011;9745;50.828;4.378;2022-11-20T02:25:44;52.43;;;26.00;;
19221;SDS011;9745;50.828;4.378;2022-11-20T02:28:11;51.90;;;24.90;;
19221;SDS011;9745;50.828;4.378;2022-11-20T02:30:37;49.53;;;24.87;;
19221;SDS011;9745;50.828;4.378;2022-11-20T02:33:03;43.50;;;23.97;;
19221;SDS011;9745;50.828;4.378;2022-11-20T02:37:59;45.53;;;23.03;;
19221;SDS011;9745;50.828;4.378;2022-11-20T02:40:26;44.53;;;22.23;;
19221;SDS011;9745;50.828;4.378;2022-11-20T02:42:53;42.63;;;21.97;;
19221;SDS011;9745;50.828;4.378;2022-11-20T02:45:19;41.70;;;21.87;;
19221;SDS011;9745;50.828;4.378;2022-11-20T02:47:45;47.63;;;23.77;;
19221;SDS011;9745;50.828;4.378;2022-11-20T02:50:11;51.23;;;23.90;;
19221;SDS011;9745;50.828;4.378;2022-11-20T02:52:37;49.70;;;22.77;;
19221;SDS011;9745;50.828;4.378;2022-11-20T02:55:03;46.60;;;23.00;;
19221;SDS011;9745;50.828;4.378;2022-11-20T02:57:29;45.53;;;22.20;;
19221;SDS011;9745;50.828;4.378;2022-11-20T02:59:55;46.30;;;21.30;;
19221;SDS011;9745;50.828;4.378;2022-11-20T03:02:21;45.27;;;23.50;;
19221;SDS011;9745;50.828;4.378;2022-11-20T03:04:47;40.50;;;21.60;;
19221;SDS011;9745;50.828;4.378;2022-11-20T03:07:13;40.50;;;20.17;;
19221;SDS011;9745;50.828;4.378;2022-11-20T03:09:39;46.43;;;20.90;;
19221;SDS011;9745;50.828;4.378;2022-11-20T03:12:05;41.07;;;20.30;;
19221;SDS011;9745;50.828;4.378;2022-11-20T03:14:31;42.60;;;19.83;;
19221;SDS011;9745;50.828;4.378;2022-11-20T03:16:57;48.37;;;21.60;;
19221;SDS011;9745;50.828;4.378;2022-11-20T03:19:23;45.10;;;21.03;;
19221;SDS011;9745;50.828;4.378;2022-11-20T03:21:49;41.03;;;18.83;;
19221;SDS011;9745;50.828;4.378;2022-11-20T03:24:15;43.87;;;18.80;;
19221;SDS011;9745;50.828;4.378;2022-11-20T03:26:41;48.07;;;20.10;;
19221;SDS011;9745;50.828;4.378;2022-11-20T03:29:07;41.10;;;19.90;;
19221;SDS011;9745;50.828;4.378;2022-11-20T03:31:34;43.00;;;20.03;;
19221;SDS011;9745;50.828;4.378;2022-11-20T03:34:01;43.17;;;20.40;;
19221;SDS011;9745;50.828;4.378;2022-11-20T03:36:28;41.50;;;21.00;;
19221;SDS011;9745;50.828;4.378;2022-11-20T03:38:54;40.67;;;20.53;;
19221;SDS011;9745;50.828;4.378;2022-11-20T03:41:22;43.43;;;19.37;;
19221;SDS011;9745;50.828;4.378;2022-11-20T03:43:48;44.07;;;20.07;;
19221;SDS011;9745;50.828;4.378;2022-11-20T03:46:15;42.00;;;20.47;;
19221;SDS011;9745;50.828;4.378;2022-11-20T03:48:41;39.27;;;20.07;;
19221;SDS011;9745;50.828;4.378;2022-11-20T03:51:11;43.77;;;20.43;;
19221;SDS011;9745;50.828;4.378;2022-11-20T03:53:38;40.87;;;19.73;;
19221;SDS011;9745;50.828;4.378;2022-11-20T03:56:04;46.37;;;21.37;;
19221;SDS011;9745;50.828;4.378;2022-11-20T03:58:30;43.30;;;20.00;;
19221;SDS011;9745;50.828;4.378;2022-11-20T04:00:56;41.40;;;19.43;;
19221;SDS011;9745;50.828;4.378;2022-11-20T04:03:22;43.47;;;19.97;;
19221;SDS011;9745;50.828;4.378;2022-11-20T04:05:48;45.60;;;20.67;;
19221;SDS011;9745;50.828;4.378;2022-11-20T04:08:14;46.50;;;20.17;;
19221;SDS011;9745;50.828;4.378;2022-11-20T04:10:40;43.70;;;21.47;;
19221;SDS011;9745;50.828;4.378;2022-11-20T04:13:06;46.30;;;21.57;;
19221;SDS011;9745;50.828;4.378;2022-11-20T04:15:32;48.33;;;21.50;;
19221;SDS011;9745;50.828;4.378;2022-11-20T04:17:58;52.83;;;23.60;;
19221;SDS011;9745;50.828;4.378;2022-11-20T04:20:24;49.03;;;22.13;;
19221;SDS011;9745;50.828;4.378;2022-11-20T04:22:52;51.37;;;22.60;;
19221;SDS011;9745;50.828;4.378;2022-11-20T04:25:19;49.50;;;21.83;;
19221;SDS011;9745;50.828;4.378;2022-11-20T04:27:45;52.23;;;23.37;;
19221;SDS011;9745;50.828;4.378;2022-11-20T04:30:11;54.07;;;22.97;;
19221;SDS011;9745;50.828;4.378;2022-11-20T04:32:37;51.23;;;22.83;;
19221;SDS011;9745;50.828;4.378;2022-11-20T04:35:03;46.83;;;21.73;;
19221;SDS011;9745;50.828;4.378;2022-11-20T04:37:29;50.20;;;22.13;;
19221;SDS011;9745;50.828;4.378;2022-11-20T04:39:55;53.63;;;21.10;;
19221;SDS011;9745;50.828;4.378;2022-11-20T04:42:21;47.47;;;23.30;;
19221;SDS011;9745;50.828;4.378;2022-11-20T04:44:53;48.40;;;22.60;;
19221;SDS011;9745;50.828;4.378;2022-11-20T04:47:20;50.10;;;22.60;;
19221;SDS011;9745;50.828;4.378;2022-11-20T04:49:46;49.63;;;22.70;;
19221;SDS011;9745;50.828;4.378;2022-11-20T04:52:12;53.10;;;22.27;;
19221;SDS011;9745;50.828;4.378;2022-11-20T04:54:38;58.10;;;23.37;;
19221;SDS011;9745;50.828;4.378;2022-11-20T04:57:04;55.70;;;22.27;;
19221;SDS011;9745;50.828;4.378;2022-11-20T04:59:30;55.20;;;23.83;;
19221;SDS011;9745;50.828;4.378;2022-11-20T05:01:55;58.93;;;24.73;;
19221;SDS011;9745;50.828;4.378;2022-11-20T05:04:21;54.50;;;22.97;;
19221;SDS011;9745;50.828;4.378;2022-11-20T05:06:49;46.53;;;21.97;;
19221;SDS011;9745;50.828;4.378;2022-11-20T05:09:14;55.23;;;24.60;;
19221;SDS011;9745;50.828;4.378;2022-11-20T05:11:40;59.07;;;24.70;;
19221;SDS011;9745;50.828;4.378;2022-11-20T05:14:06;54.40;;;24.80;;
19221;SDS011;9745;50.828;4.378;2022-11-20T05:16:33;58.67;;;24.77;;
19221;SDS011;9745;50.828;4.378;2022-11-20T05:19:00;54.73;;;24.70;;
19221;SDS011;9745;50.828;4.378;2022-11-20T05:21:26;60.07;;;22.97;;
19221;SDS011;9745;50.828;4.378;2022-11-20T05:23:52;53.30;;;23.83;;
19221;SDS011;9745;50.828;4.378;2022-11-20T05:26:19;59.07;;;25.97;;
19221;SDS011;9745;50.828;4.378;2022-11-20T05:28:49;58.40;;;24.13;;
19221;SDS011;9745;50.828;4.378;2022-11-20T05:31:16;56.10;;;23.43;;
19221;SDS011;9745;50.828;4.378;2022-11-20T05:33:43;60.63;;;24.63;;
19221;SDS011;9745;50.828;4.378;2022-11-20T05:36:10;56.87;;;23.87;;
19221;SDS011;9745;50.828;4.378;2022-11-20T05:38:36;64.10;;;24.73;;
19221;SDS011;9745;50.828;4.378;2022-11-20T05:41:03;57.63;;;23.57;;
19221;SDS011;9745;50.828;4.378;2022-11-20T05:43:31;57.30;;;24.57;;
19221;SDS011;9745;50.828;4.378;2022-11-20T05:45:57;62.57;;;24.97;;
19221;SDS011;9745;50.828;4.378;2022-11-20T05:48:23;64.30;;;24.60;;
19221;SDS011;9745;50.828;4.378;2022-11-20T05:50:49;55.27;;;23.20;;
19221;SDS011;9745;50.828;4.378;2022-11-20T05:53:15;56.97;;;23.97;;
19221;SDS011;9745;50.828;4.378;2022-11-20T05:55:40;60.07;;;24.40;;
19221;SDS011;9745;50.828;4.378;2022-11-20T05:58:07;59.13;;;23.53;;
19221;SDS011;9745;50.828;4.378;2022-11-20T06:00:32;66.40;;;24.90;;
19221;SDS011;9745;50.828;4.378;2022-11-20T06:02:58;58.27;;;24.87;;
19221;SDS011;9745;50.828;4.378;2022-11-20T06:05:24;63.37;;;25.77;;
19221;SDS011;9745;50.828;4.378;2022-11-20T06:07:50;65.87;;;25.43;;
19221;SDS011;9745;50.828;4.378;2022-11-20T06:10:16;63.67;;;25.50;;
19221;SDS011;9745;50.828;4.378;2022-11-20T06:12:42;60.87;;;24.43;;
19221;SDS011;9745;50.828;4.378;2022-11-20T06:15:08;66.77;;;24.17;;
19221;SDS011;9745;50.828;4.378;2022-11-20T06:17:34;60.50;;;23.83;;
19221;SDS011;9745;50.828;4.378;2022-11-20T06:20:00;72.77;;;28.27;;
19221;SDS011;9745;50.828;4.378;2022-11-20T06:22:26;53.87;;;24.57;;
19221;SDS011;9745;50.828;4.378;2022-11-20T06:24:52;62.53;;;24.40;;
19221;SDS011;9745;50.828;4.378;2022-11-20T06:27:18;62.17;;;24.70;;
19221;SDS011;9745;50.828;4.378;2022-11-20T06:29:44;66.50;;;25.70;;
19221;SDS011;9745;50.828;4.378;2022-11-20T06:32:10;70.37;;;24.90;;
19221;SDS011;9745;50.828;4.378;2022-11-20T06:34:36;59.00;;;24.40;;
19221;SDS011;9745;50.828;4.378;2022-11-20T06:37:02;64.00;;;24.40;;
19221;SDS011;9745;50.828;4.378;2022-11-20T06:39:28;61.57;;;23.47;;
19221;SDS011;9745;50.828;4.378;2022-11-20T06:41:54;54.00;;;23.87;;
19221;SDS011;9745;50.828;4.378;2022-11-20T06:44:20;66.30;;;23.40;;
19221;SDS011;9745;50.828;4.378;2022-11-20T06:46:46;56.67;;;23.50;;
19221;SDS011;9745;50.828;4.378;2022-11-20T06:49:12;58.50;;;24.60;;
19221;SDS011;9745;50.828;4.378;2022-11-20T06:51:38;59.10;;;23.13;;
19221;SDS011;9745;50.828;4.378;2022-11-20T06:54:04;61.93;;;23.93;;
19221;SDS011;9745;50.828;4.378;2022-11-20T06:56:30;68.50;;;24.87;;
19221;SDS011;9745;50.828;4.378;2022-11-20T06:58:56;56.87;;;24.07;;
19221;SDS011;9745;50.828;4.378;2022-11-20T07:01:22;61.93;;;23.87;;
19221;SDS011;9745;50.828;4.378;2022-11-20T07:03:48;57.37;;;23.27;;
19221;SDS011;9745;50.828;4.378;2022-11-20T07:06:15;56.83;;;22.87;;
19221;SDS011;9745;50.828;4.378;2022-11-20T07:08:41;63.17;;;24.50;;
19221;SDS011;9745;50.828;4.378;2022-11-20T07:11:07;59.73;;;23.60;;
19221;SDS011;9745;50.828;4.378;2022-11-20T07:13:34;60.57;;;24.37;;
19221;SDS011;9745;50.828;4.378;2022-11-20T07:16:01;53.50;;;23.27;;
19221;SDS011;9745;50.828;4.378;2022-11-20T07:18:27;56.27;;;23.37;;
19221;SDS011;9745;50.828;4.378;2022-11-20T07:20:53;54.57;;;22.63;;
19221;SDS011;9745;50.828;4.378;2022-11-20T07:23:19;49.23;;;22.23;;
19221;SDS011;9745;50.828;4.378;2022-11-20T07:25:45;57.23;;;22.83;;
19221;SDS011;9745;50.828;4.378;2022-11-20T07:28:11;59.07;;;23.57;;
19221;SDS011;9745;50.828;4.378;2022-11-20T07:30:37;47.70;;;21.17;;
19221;SDS011;9745;50.828;4.378;2022-11-20T07:33:03;52.43;;;23.00;;
19221;SDS011;9745;50.828;4.378;2022-11-20T07:35:29;55.73;;;22.37;;
19221;SDS011;9745;50.828;4.378;2022-11-20T07:37:55;50.33;;;23.53;;
19221;SDS011;9745;50.828;4.378;2022-11-20T07:40:21;51.50;;;22.17;;
19221;SDS011;9745;50.828;4.378;2022-11-20T07:42:51;54.20;;;22.33;;
19221;SDS011;9745;50.828;4.378;2022-11-20T07:45:18;57.27;;;22.33;;
19221;SDS011;9745;50.828;4.378;2022-11-20T07:47:44;56.40;;;22.13;;
19221;SDS011;9745;50.828;4.378;2022-11-20T07:50:10;56.43;;;22.30;;
19221;SDS011;9745;50.828;4.378;2022-11-20T07:52:36;56.57;;;23.93;;
19221;SDS011;9745;50.828;4.378;2022-11-20T07:55:02;59.23;;;23.30;;
19221;SDS011;9745;50.828;4.378;2022-11-20T07:57:28;55.67;;;22.20;;
19221;SDS011;9745;50.828;4.378;2022-11-20T07:59:54;64.83;;;23.20;;
19221;SDS011;9745;50.828;4.378;2022-11-20T08:02:20;58.43;;;22.03;;
19221;SDS011;9745;50.828;4.378;2022-11-20T08:04:46;52.63;;;20.67;;
19221;SDS011;9745;50.828;4.378;2022-11-20T08:07:12;56.73;;;22.23;;
19221;SDS011;9745;50.828;4.378;2022-11-20T08:09:38;53.67;;;22.00;;
19221;SDS011;9745;50.828;4.378;2022-11-20T08:12:04;51.33;;;20.83;;
19221;SDS011;9745;50.828;4.378;2022-11-20T08:14:48;43.80;;;19.20;;
19221;SDS011;9745;50.828;4.378;2022-11-20T08:17:14;54.03;;;20.97;;
19221;SDS011;9745;50.828;4.378;2022-11-20T08:19:40;59.37;;;22.33;;
19221;SDS011;9745;50.828;4.378;2022-11-20T08:22:06;58.87;;;25.17;;
19221;SDS011;9745;50.828;4.378;2022-11-20T08:24:32;60.53;;;25.63;;
19221;SDS011;9745;50.828;4.378;2022-11-20T08:26:58;53.20;;;22.63;;
19221;SDS011;9745;50.828;4.378;2022-11-20T08:29:27;48.27;;;21.07;;
19221;SDS011;9745;50.828;4.378;2022-11-20T08:31:53;53.17;;;19.87;;
19221;SDS011;9745;50.828;4.378;2022-11-20T08:34:19;49.13;;;20.20;;
19221;SDS011;9745;50.828;4.378;2022-11-20T08:36:45;44.80;;;20.17;;
19221;SDS011;9745;50.828;4.378;2022-11-20T08:39:11;48.57;;;20.10;;
19221;SDS011;9745;50.828;4.378;2022-11-20T08:41:38;49.80;;;20.60;;
19221;SDS011;9745;50.828;4.378;2022-11-20T08:44:04;49.27;;;20.33;;
19221;SDS011;9745;50.828;4.378;2022-11-20T08:46:35;48.03;;;20.33;;
19221;SDS011;9745;50.828;4.378;2022-11-20T08:49:02;48.97;;;20.40;;
19221;SDS011;9745;50.828;4.378;2022-11-20T08:51:28;44.97;;;19.73;;
19221;SDS011;9745;50.828;4.378;2022-11-20T08:53:54;47.03;;;19.37;;
19221;SDS011;9745;50.828;4.378;2022-11-20T08:56:20;45.93;;;21.20;;
19221;SDS011;9745;50.828;4.378;2022-11-20T08:58:46;45.13;;;19.23;;
19221;SDS011;9745;50.828;4.378;2022-11-20T09:01:12;46.87;;;20.43;;
19221;SDS011;9745;50.828;4.378;2022-11-20T09:03:38;44.53;;;20.47;;
19221;SDS011;9745;50.828;4.378;2022-11-20T09:06:05;44.80;;;20.13;;
19221;SDS011;9745;50.828;4.378;2022-11-20T09:08:32;46.07;;;19.53;;
19221;SDS011;9745;50.828;4.378;2022-11-20T09:10:58;49.37;;;19.67;;
19221;SDS011;9745;50.828;4.378;2022-11-20T09:13:25;41.07;;;18.77;;
19221;SDS011;9745;50.828;4.378;2022-11-20T09:15:55;37.70;;;17.63;;
19221;SDS011;9745;50.828;4.378;2022-11-20T09:18:22;45.40;;;19.87;;
19221;SDS011;9745;50.828;4.378;2022-11-20T09:20:48;38.00;;;18.53;;
19221;SDS011;9745;50.828;4.378;2022-11-20T09:23:14;45.83;;;18.60;;
19221;SDS011;9745;50.828;4.378;2022-11-20T09:25:40;42.33;;;17.47;;
19221;SDS011;9745;50.828;4.378;2022-11-20T09:28:06;36.77;;;16.93;;
19221;SDS011;9745;50.828;4.378;2022-11-20T09:30:32;36.73;;;16.10;;
19221;SDS011;9745;50.828;4.378;2022-11-20T09:32:58;42.87;;;18.10;;
19221;SDS011;9745;50.828;4.378;2022-11-20T09:35:24;42.40;;;16.90;;
19221;SDS011;9745;50.828;4.378;2022-11-20T09:37:50;36.50;;;16.07;;
19221;SDS011;9745;50.828;4.378;2022-11-20T09:40:20;32.73;;;14.80;;
19221;SDS011;9745;50.828;4.378;2022-11-20T09:45:39;30.57;;;15.27;;
19221;SDS011;9745;50.828;4.378;2022-11-20T09:51:00;27.57;;;13.93;;
19221;SDS011;9745;50.828;4.378;2022-11-20T09:56:00;28.97;;;14.03;;
19221;SDS011;9745;50.828;4.378;2022-11-20T10:00:58;26.80;;;13.37;;
19221;SDS011;9745;50.828;4.378;2022-11-20T10:06:19;23.73;;;11.23;;
19221;SDS011;9745;50.828;4.378;2022-11-20T10:08:49;26.53;;;11.47;;
19221;SDS011;9745;50.828;4.378;2022-11-20T10:13:59;18.53;;;8.93;;
19221;SDS011;9745;50.828;4.378;2022-11-20T10:22:19;15.10;;;8.43;;
19221;SDS011;9745;50.828;4.378;2022-11-20T10:29:49;15.33;;;7.77;;
19221;SDS011;9745;50.828;4.378;2022-11-20T10:32:20;13.13;;;7.17;;
19221;SDS011;9745;50.828;4.378;2022-11-20T10:34:49;14.10;;;7.20;;
19221;SDS011;9745;50.828;4.378;2022-11-20T10:37:17;12.97;;;6.43;;
19221;SDS011;9745;50.828;4.378;2022-11-20T10:42:11;11.23;;;5.60;;
19221;SDS011;9745;50.828;4.378;2022-11-20T10:44:39;14.00;;;5.17;;
19221;SDS011;9745;50.828;4.378;2022-11-20T10:47:27;12.53;;;5.30;;
19221;SDS011;9745;50.828;4.378;2022-11-20T10:49:54;11.77;;;5.30;;
19221;SDS011;9745;50.828;4.378;2022-11-20T10:52:39;10.37;;;4.60;;
19221;SDS011;9745;50.828;4.378;2022-11-20T10:55:25;12.27;;;5.87;;
19221;SDS011;9745;50.828;4.378;2022-11-20T11:00:20;10.23;;;4.03;;
19221;SDS011;9745;50.828;4.378;2022-11-20T11:02:47;8.27;;;4.07;;
19221;SDS011;9745;50.828;4.378;2022-11-20T11:05:18;11.83;;;4.57;;
19221;SDS011;9745;50.828;4.378;2022-11-20T11:07:52;7.73;;;3.57;;
19221;SDS011;9745;50.828;4.378;2022-11-20T11:10:24;7.60;;;3.77;;
19221;SDS011;9745;50.828;4.378;2022-11-20T11:12:50;7.37;;;3.87;;
19221;SDS011;9745;50.828;4.378;2022-11-20T11:20:50;5.90;;;3.40;;
19221;SDS011;9745;50.828;4.378;2022-11-20T11:23:36;5.87;;;3.10;;
19221;SDS011;9745;50.828;4.378;2022-11-20T11:26:03;7.87;;;2.87;;
19221;SDS011;9745;50.828;4.378;2022-11-20T11:28:29;8.90;;;3.10;;
19221;SDS011;9745;50.828;4.378;2022-11-20T11:30:56;11.67;;;2.93;;
19221;SDS011;9745;50.828;4.378;2022-11-20T11:33:29;7.33;;;3.03;;
19221;SDS011;9745;50.828;4.378;2022-11-20T11:35:56;6.57;;;2.53;;
19221;SDS011;9745;50.828;4.378;2022-11-20T11:38:39;6.13;;;2.30;;
19221;SDS011;9745;50.828;4.378;2022-11-20T11:41:09;6.13;;;2.60;;
19221;SDS011;9745;50.828;4.378;2022-11-20T11:43:38;7.47;;;2.50;;
19221;SDS011;9745;50.828;4.378;2022-11-20T11:46:30;6.30;;;2.77;;
19221;SDS011;9745;50.828;4.378;2022-11-20T11:57:01;9.17;;;2.60;;
19221;SDS011;9745;50.828;4.378;2022-11-20T12:00:13;9.73;;;2.67;;
19221;SDS011;9745;50.828;4.378;2022-11-20T12:03:07;5.53;;;2.33;;
19221;SDS011;9745;50.828;4.378;2022-11-20T12:07:39;9.60;;;2.93;;
19221;SDS011;9745;50.828;4.378;2022-11-20T12:13:04;7.20;;;2.50;;
19221;SDS011;9745;50.828;4.378;2022-11-20T12:15:34;7.33;;;2.60;;
19221;SDS011;9745;50.828;4.378;2022-11-20T12:18:01;5.40;;;2.50;;
19221;SDS011;9745;50.828;4.378;2022-11-20T12:20:29;8.37;;;2.57;;
19221;SDS011;9745;50.828;4.378;2022-11-20T12:25:34;5.17;;;2.70;;
19221;SDS011;9745;50.828;4.378;2022-11-20T12:30:27;5.03;;;2.53;;
19221;SDS011;9745;50.828;4.378;2022-11-20T12:35:41;4.50;;;2.60;;
19221;SDS011;9745;50.828;4.378;2022-11-20T12:43:26;25.57;;;4.27;;
19221;SDS011;9745;50.828;4.378;2022-11-20T12:51:11;6.67;;;2.60;;
19221;SDS011;9745;50.828;4.378;2022-11-20T12:53:51;5.67;;;2.90;;
19221;SDS011;9745;50.828;4.378;2022-11-20T12:59:02;7.03;;;3.07;;
19221;SDS011;9745;50.828;4.378;2022-11-20T13:04:23;5.03;;;2.60;;
19221;SDS011;9745;50.828;4.378;2022-11-20T13:06:58;4.17;;;2.47;;
19221;SDS011;9745;50.828;4.378;2022-11-20T13:09:24;6.30;;;2.60;;
19221;SDS011;9745;50.828;4.378;2022-11-20T13:12:01;5.63;;;2.67;;
19221;SDS011;9745;50.828;4.378;2022-11-20T13:14:37;7.90;;;2.70;;
19221;SDS011;9745;50.828;4.378;2022-11-20T13:17:41;3.77;;;2.93;;
19221;SDS011;9745;50.828;4.378;2022-11-20T13:19:58;6.73;;;2.33;;
19221;SDS011;9745;50.828;4.378;2022-11-20T13:22:25;5.23;;;3.23;;
19221;SDS011;9745;50.828;4.378;2022-11-20T13:24:51;5.83;;;3.57;;
19221;SDS011;9745;50.828;4.378;2022-11-20T13:27:18;8.07;;;3.63;;
19221;SDS011;9745;50.828;4.378;2022-11-20T13:29:45;5.80;;;2.97;;
19221;SDS011;9745;50.828;4.378;2022-11-20T13:34:37;8.50;;;2.57;;
19221;SDS011;9745;50.828;4.378;2022-11-20T13:37:04;4.37;;;2.80;;
19221;SDS011;9745;50.828;4.378;2022-11-20T13:39:31;6.73;;;3.07;;
19221;SDS011;9745;50.828;4.378;2022-11-20T13:42:01;5.77;;;2.80;;
19221;SDS011;9745;50.828;4.378;2022-11-20T13:44:36;9.00;;;2.80;;
19221;SDS011;9745;50.828;4.378;2022-11-20T13:47:03;3.60;;;2.37;;
19221;SDS011;9745;50.828;4.378;2022-11-20T13:49:31;7.03;;;2.40;;
19221;SDS011;9745;50.828;4.378;2022-11-20T13:54:36;5.10;;;2.23;;
19221;SDS011;9745;50.828;4.378;2022-11-20T13:57:41;2.93;;;2.33;;
19221;SDS011;9745;50.828;4.378;2022-11-20T14:00:19;4.47;;;2.23;;
19221;SDS011;9745;50.828;4.378;2022-11-20T14:02:43;4.23;;;2.10;;
19221;SDS011;9745;50.828;4.378;2022-11-20T14:05:17;4.27;;;2.10;;
19221;SDS011;9745;50.828;4.378;2022-11-20T14:07:45;3.73;;;2.00;;
19221;SDS011;9745;50.828;4.378;2022-11-20T14:10:27;4.17;;;2.03;;
19221;SDS011;9745;50.828;4.378;2022-11-20T14:12:53;3.60;;;1.83;;
19221;SDS011;9745;50.828;4.378;2022-11-20T14:15:24;2.80;;;1.93;;
19221;SDS011;9745;50.828;4.378;2022-11-20T14:17:50;3.63;;;2.20;;
19221;SDS011;9745;50.828;4.378;2022-11-20T14:20:16;5.00;;;3.30;;
19221;SDS011;9745;50.828;4.378;2022-11-20T14:22:48;3.33;;;2.30;;
19221;SDS011;9745;50.828;4.378;2022-11-20T14:27:41;3.57;;;2.00;;
19221;SDS011;9745;50.828;4.378;2022-11-20T14:30:22;3.17;;;2.10;;
19221;SDS011;9745;50.828;4.378;2022-11-20T14:32:48;4.47;;;2.43;;
19221;SDS011;9745;50.828;4.378;2022-11-20T14:35:18;3.43;;;2.30;;
19221;SDS011;9745;50.828;4.378;2022-11-20T14:37:45;4.10;;;2.40;;
19221;SDS011;9745;50.828;4.378;2022-11-20T14:40:31;4.50;;;2.33;;
19221;SDS011;9745;50.828;4.378;2022-11-20T14:43:00;3.70;;;2.53;;
19221;SDS011;9745;50.828;4.378;2022-11-20T14:45:26;3.57;;;2.47;;
19221;SDS011;9745;50.828;4.378;2022-11-20T14:47:53;3.47;;;2.10;;
19221;SDS011;9745;50.828;4.378;2022-11-20T14:50:22;3.20;;;2.10;;
19221;SDS011;9745;50.828;4.378;2022-11-20T14:52:52;5.77;;;3.23;;
19221;SDS011;9745;50.828;4.378;2022-11-20T14:55:26;7.13;;;2.80;;
19221;SDS011;9745;50.828;4.378;2022-11-20T14:58:00;6.43;;;2.90;;
19221;SDS011;9745;50.828;4.378;2022-11-20T15:00:26;5.07;;;2.30;;
19221;SDS011;9745;50.828;4.378;2022-11-20T15:02:52;5.80;;;2.67;;
19221;SDS011;9745;50.828;4.378;2022-11-20T15:05:19;3.30;;;2.40;;
19221;SDS011;9745;50.828;4.378;2022-11-20T15:07:47;2.97;;;2.13;;
19221;SDS011;9745;50.828;4.378;2022-11-20T15:10:23;4.13;;;2.67;;
19221;SDS011;9745;50.828;4.378;2022-11-20T15:12:59;3.73;;;2.50;;
19221;SDS011;9745;50.828;4.378;2022-11-20T15:15:35;4.80;;;2.70;;
19221;SDS011;9745;50.828;4.378;2022-11-20T15:18:02;9.60;;;3.90;;
19221;SDS011;9745;50.828;4.378;2022-11-20T15:20:30;6.37;;;2.93;;
19221;SDS011;9745;50.828;4.378;2022-11-20T15:22:56;5.47;;;2.73;;
19221;SDS011;9745;50.828;4.378;2022-11-20T15:25:22;8.80;;;4.47;;
19221;SDS011;9745;50.828;4.378;2022-11-20T15:27:50;7.90;;;3.63;;
19221;SDS011;9745;50.828;4.378;2022-11-20T15:30:18;5.23;;;3.40;;
19221;SDS011;9745;50.828;4.378;2022-11-20T15:32:44;6.57;;;3.57;;
19221;SDS011;9745;50.828;4.378;2022-11-20T15:35:11;5.83;;;3.33;;
19221;SDS011;9745;50.828;4.378;2022-11-20T15:37:37;6.87;;;3.07;;
19221;SDS011;9745;50.828;4.378;2022-11-20T15:40:04;8.90;;;3.33;;
19221;SDS011;9745;50.828;4.378;2022-11-20T15:42:30;6.00;;;3.50;;
19221;SDS011;9745;50.828;4.378;2022-11-20T15:44:56;9.30;;;3.83;;
19221;SDS011;9745;50.828;4.378;2022-11-20T15:47:24;6.40;;;3.63;;
19221;SDS011;9745;50.828;4.378;2022-11-20T15:49:51;7.87;;;3.77;;
19221;SDS011;9745;50.828;4.378;2022-11-20T15:52:16;9.20;;;3.27;;
19221;SDS011;9745;50.828;4.378;2022-11-20T15:54:42;8.17;;;4.07;;
19221;SDS011;9745;50.828;4.378;2022-11-20T15:57:08;8.37;;;3.60;;
19221;SDS011;9745;50.828;4.378;2022-11-20T15:59:34;9.63;;;3.27;;
19221;SDS011;9745;50.828;4.378;2022-11-20T16:02:08;10.93;;;3.90;;
19221;SDS011;9745;50.828;4.378;2022-11-20T16:04:34;8.63;;;3.63;;
19221;SDS011;9745;50.828;4.378;2022-11-20T16:07:00;11.17;;;3.77;;
19221;SDS011;9745;50.828;4.378;2022-11-20T16:09:26;10.10;;;4.30;;
19221;SDS011;9745;50.828;4.378;2022-11-20T16:11:52;11.43;;;3.97;;
19221;SDS011;9745;50.828;4.378;2022-11-20T16:14:18;13.73;;;3.53;;
19221;SDS011;9745;50.828;4.378;2022-11-20T16:17:03;8.13;;;3.07;;